sensor_id;sensor_type;location;lat;lon;timestamp;P1;durP1;ratioP1;P2;durP2;ratioP2
33403;SDS011;19751;40.274;18.268;2023-07-24T00:00:18;18.92;;;9.25;;
33403;SDS011;19751;40.274;18.268;2023-07-24T00:02:44;25.67;;;10.48;;
33403;SDS011;19751;40.274;18.268;2023-07-24T00:05:10;21.42;;;10.52;;
33403;SDS011;19751;40.274;18.268;2023-07-24T00:07:35;19.48;;;9.38;;
33403;SDS011;19751;40.274;18.268;2023-07-24T00:10:01;19.33;;;9.63;;
33403;SDS011;19751;40.274;18.268;2023-07-24T00:12:27;20.00;;;10.85;;
33403;SDS011;19751;40.274;18.268;2023-07-24T00:14:52;22.92;;;10.73;;
33403;SDS011;19751;40.274;18.268;2023-07-24T00:17:18;22.55;;;10.32;;
33403;SDS011;19751;40.274;18.268;2023-07-24T00:19:44;21.25;;;11.00;;
33403;SDS011;19751;40.274;18.268;2023-07-24T00:22:09;28.30;;;12.35;;
33403;SDS011;19751;40.274;18.268;2023-07-24T00:24:35;19.58;;;11.80;;
33403;SDS011;19751;40.274;18.268;2023-07-24T00:27:00;22.10;;;11.27;;
33403;SDS011;19751;40.274;18.268;2023-07-24T00:29:26;30.05;;;12.50;;
33403;SDS011;19751;40.274;18.268;2023-07-24T00:31:52;23.67;;;11.30;;
33403;SDS011;19751;40.274;18.268;2023-07-24T00:34:17;24.00;;;12.30;;
33403;SDS011;19751;40.274;18.268;2023-07-24T00:36:43;21.73;;;11.77;;
33403;SDS011;19751;40.274;18.268;2023-07-24T00:39:08;36.85;;;14.48;;
33403;SDS011;19751;40.274;18.268;2023-07-24T00:41:34;22.73;;;12.68;;
33403;SDS011;19751;40.274;18.268;2023-07-24T00:43:59;20.67;;;13.25;;
33403;SDS011;19751;40.274;18.268;2023-07-24T00:46:25;25.10;;;12.88;;
33403;SDS011;19751;40.274;18.268;2023-07-24T00:48:51;24.75;;;13.48;;
33403;SDS011;19751;40.274;18.268;2023-07-24T00:51:17;30.08;;;15.10;;
33403;SDS011;19751;40.274;18.268;2023-07-24T00:53:43;26.90;;;15.60;;
33403;SDS011;19751;40.274;18.268;2023-07-24T00:56:09;32.22;;;15.30;;
33403;SDS011;19751;40.274;18.268;2023-07-24T00:58:36;25.65;;;13.98;;
33403;SDS011;19751;40.274;18.268;2023-07-24T01:01:03;27.00;;;13.27;;
33403;SDS011;19751;40.274;18.268;2023-07-24T01:03:33;25.58;;;14.40;;
33403;SDS011;19751;40.274;18.268;2023-07-24T01:06:03;27.50;;;14.65;;
33403;SDS011;19751;40.274;18.268;2023-07-24T01:08:29;21.33;;;13.43;;
33403;SDS011;19751;40.274;18.268;2023-07-24T01:10:56;26.00;;;14.57;;
33403;SDS011;19751;40.274;18.268;2023-07-24T01:13:24;23.15;;;12.27;;
33403;SDS011;19751;40.274;18.268;2023-07-24T01:16:05;20.52;;;11.82;;
33403;SDS011;19751;40.274;18.268;2023-07-24T01:18:34;21.65;;;12.13;;
33403;SDS011;19751;40.274;18.268;2023-07-24T01:21:03;23.33;;;11.70;;
33403;SDS011;19751;40.274;18.268;2023-07-24T01:26:28;20.38;;;11.80;;
33403;SDS011;19751;40.274;18.268;2023-07-24T01:28:53;22.48;;;12.13;;
33403;SDS011;19751;40.274;18.268;2023-07-24T01:31:19;18.67;;;10.75;;
33403;SDS011;19751;40.274;18.268;2023-07-24T01:33:45;22.45;;;10.60;;
33403;SDS011;19751;40.274;18.268;2023-07-24T01:36:10;26.33;;;12.05;;
33403;SDS011;19751;40.274;18.268;2023-07-24T01:38:38;27.20;;;11.57;;
33403;SDS011;19751;40.274;18.268;2023-07-24T01:41:04;20.23;;;10.35;;
33403;SDS011;19751;40.274;18.268;2023-07-24T01:43:30;23.88;;;11.15;;
33403;SDS011;19751;40.274;18.268;2023-07-24T01:45:57;29.75;;;11.88;;
33403;SDS011;19751;40.274;18.268;2023-07-24T01:48:23;26.55;;;10.50;;
33403;SDS011;19751;40.274;18.268;2023-07-24T01:50:48;22.35;;;10.60;;
33403;SDS011;19751;40.274;18.268;2023-07-24T01:53:15;26.85;;;11.32;;
33403;SDS011;19751;40.274;18.268;2023-07-24T01:55:40;17.25;;;10.27;;
33403;SDS011;19751;40.274;18.268;2023-07-24T01:58:06;17.48;;;10.13;;
33403;SDS011;19751;40.274;18.268;2023-07-24T02:00:31;14.25;;;10.65;;
33403;SDS011;19751;40.274;18.268;2023-07-24T02:02:57;13.90;;;8.95;;
33403;SDS011;19751;40.274;18.268;2023-07-24T02:05:22;20.70;;;11.85;;
33403;SDS011;19751;40.274;18.268;2023-07-24T02:07:48;18.02;;;9.10;;
33403;SDS011;19751;40.274;18.268;2023-07-24T02:10:13;19.67;;;9.95;;
33403;SDS011;19751;40.274;18.268;2023-07-24T02:12:39;18.00;;;10.02;;
33403;SDS011;19751;40.274;18.268;2023-07-24T02:15:05;19.48;;;9.93;;
33403;SDS011;19751;40.274;18.268;2023-07-24T02:17:31;20.48;;;9.88;;
33403;SDS011;19751;40.274;18.268;2023-07-24T02:19:56;17.58;;;10.07;;
33403;SDS011;19751;40.274;18.268;2023-07-24T02:22:22;21.10;;;10.80;;
33403;SDS011;19751;40.274;18.268;2023-07-24T02:24:47;17.48;;;8.50;;
33403;SDS011;19751;40.274;18.268;2023-07-24T02:27:13;23.95;;;9.85;;
33403;SDS011;19751;40.274;18.268;2023-07-24T02:29:50;19.95;;;10.07;;
33403;SDS011;19751;40.274;18.268;2023-07-24T02:32:16;16.92;;;10.18;;
33403;SDS011;19751;40.274;18.268;2023-07-24T02:34:41;20.83;;;9.95;;
33403;SDS011;19751;40.274;18.268;2023-07-24T02:37:07;15.80;;;9.60;;
33403;SDS011;19751;40.274;18.268;2023-07-24T02:39:32;18.95;;;10.52;;
33403;SDS011;19751;40.274;18.268;2023-07-24T02:41:58;23.77;;;10.65;;
33403;SDS011;19751;40.274;18.268;2023-07-24T02:44:23;20.08;;;9.27;;
33403;SDS011;19751;40.274;18.268;2023-07-24T02:46:49;17.63;;;8.75;;
33403;SDS011;19751;40.274;18.268;2023-07-24T02:49:14;16.10;;;9.77;;
33403;SDS011;19751;40.274;18.268;2023-07-24T02:51:39;25.00;;;9.90;;
33403;SDS011;19751;40.274;18.268;2023-07-24T02:54:05;20.98;;;9.90;;
33403;SDS011;19751;40.274;18.268;2023-07-24T02:56:31;22.65;;;9.90;;
33403;SDS011;19751;40.274;18.268;2023-07-24T02:58:56;17.75;;;9.10;;
33403;SDS011;19751;40.274;18.268;2023-07-24T03:01:22;23.02;;;9.73;;
33403;SDS011;19751;40.274;18.268;2023-07-24T03:03:47;17.38;;;9.13;;
33403;SDS011;19751;40.274;18.268;2023-07-24T03:06:14;23.08;;;9.23;;
33403;SDS011;19751;40.274;18.268;2023-07-24T03:08:40;24.90;;;9.02;;
33403;SDS011;19751;40.274;18.268;2023-07-24T03:11:05;17.38;;;8.52;;
33403;SDS011;19751;40.274;18.268;2023-07-24T03:13:31;15.93;;;9.45;;
33403;SDS011;19751;40.274;18.268;2023-07-24T03:15:57;17.92;;;9.52;;
33403;SDS011;19751;40.274;18.268;2023-07-24T03:18:23;30.17;;;10.45;;
33403;SDS011;19751;40.274;18.268;2023-07-24T03:20:49;17.80;;;9.45;;
33403;SDS011;19751;40.274;18.268;2023-07-24T03:23:14;16.23;;;9.48;;
33403;SDS011;19751;40.274;18.268;2023-07-24T03:25:40;15.85;;;8.93;;
33403;SDS011;19751;40.274;18.268;2023-07-24T03:28:06;18.77;;;9.07;;
33403;SDS011;19751;40.274;18.268;2023-07-24T03:30:32;15.45;;;7.70;;
33403;SDS011;19751;40.274;18.268;2023-07-24T03:32:57;14.45;;;8.63;;
33403;SDS011;19751;40.274;18.268;2023-07-24T03:35:23;22.45;;;9.70;;
33403;SDS011;19751;40.274;18.268;2023-07-24T03:37:49;15.10;;;9.40;;
33403;SDS011;19751;40.274;18.268;2023-07-24T03:40:14;19.63;;;9.73;;
33403;SDS011;19751;40.274;18.268;2023-07-24T03:42:40;19.27;;;9.02;;
33403;SDS011;19751;40.274;18.268;2023-07-24T03:45:06;18.75;;;8.95;;
33403;SDS011;19751;40.274;18.268;2023-07-24T03:47:33;18.27;;;9.43;;
33403;SDS011;19751;40.274;18.268;2023-07-24T03:49:58;17.10;;;8.70;;
33403;SDS011;19751;40.274;18.268;2023-07-24T03:52:24;11.88;;;7.68;;
33403;SDS011;19751;40.274;18.268;2023-07-24T03:54:51;13.35;;;7.63;;
33403;SDS011;19751;40.274;18.268;2023-07-24T03:57:17;9.88;;;7.03;;
33403;SDS011;19751;40.274;18.268;2023-07-24T03:59:42;13.68;;;8.02;;
33403;SDS011;19751;40.274;18.268;2023-07-24T04:02:08;11.13;;;6.00;;
33403;SDS011;19751;40.274;18.268;2023-07-24T04:04:34;13.50;;;7.03;;
33403;SDS011;19751;40.274;18.268;2023-07-24T04:06:59;9.43;;;7.25;;
33403;SDS011;19751;40.274;18.268;2023-07-24T04:09:25;9.43;;;6.25;;
33403;SDS011;19751;40.274;18.268;2023-07-24T04:11:50;11.93;;;6.55;;
33403;SDS011;19751;40.274;18.268;2023-07-24T04:14:16;11.40;;;6.30;;
33403;SDS011;19751;40.274;18.268;2023-07-24T04:16:41;12.23;;;6.40;;
33403;SDS011;19751;40.274;18.268;2023-07-24T04:19:07;9.98;;;5.28;;
33403;SDS011;19751;40.274;18.268;2023-07-24T04:21:33;12.70;;;5.05;;
33403;SDS011;19751;40.274;18.268;2023-07-24T04:23:59;11.77;;;4.95;;
33403;SDS011;19751;40.274;18.268;2023-07-24T04:26:26;9.55;;;4.70;;
33403;SDS011;19751;40.274;18.268;2023-07-24T04:28:51;11.60;;;5.45;;
33403;SDS011;19751;40.274;18.268;2023-07-24T04:31:16;14.38;;;6.93;;
33403;SDS011;19751;40.274;18.268;2023-07-24T04:33:42;12.27;;;6.10;;
33403;SDS011;19751;40.274;18.268;2023-07-24T04:36:07;8.65;;;6.00;;
33403;SDS011;19751;40.274;18.268;2023-07-24T04:38:33;10.00;;;6.05;;
33403;SDS011;19751;40.274;18.268;2023-07-24T04:41:01;9.95;;;5.35;;
33403;SDS011;19751;40.274;18.268;2023-07-24T04:43:28;18.95;;;6.90;;
33403;SDS011;19751;40.274;18.268;2023-07-24T04:45:53;11.20;;;7.07;;
33403;SDS011;19751;40.274;18.268;2023-07-24T04:48:19;13.60;;;6.75;;
33403;SDS011;19751;40.274;18.268;2023-07-24T04:50:45;10.32;;;6.25;;
33403;SDS011;19751;40.274;18.268;2023-07-24T04:53:10;11.73;;;7.15;;
33403;SDS011;19751;40.274;18.268;2023-07-24T04:55:36;14.80;;;6.80;;
33403;SDS011;19751;40.274;18.268;2023-07-24T04:58:01;9.43;;;7.35;;
33403;SDS011;19751;40.274;18.268;2023-07-24T05:00:27;17.33;;;7.93;;
33403;SDS011;19751;40.274;18.268;2023-07-24T05:02:52;16.65;;;7.75;;
33403;SDS011;19751;40.274;18.268;2023-07-24T05:05:18;15.45;;;7.75;;
33403;SDS011;19751;40.274;18.268;2023-07-24T05:07:43;15.82;;;7.57;;
33403;SDS011;19751;40.274;18.268;2023-07-24T05:10:09;19.90;;;7.63;;
33403;SDS011;19751;40.274;18.268;2023-07-24T05:12:34;18.83;;;7.43;;
33403;SDS011;19751;40.274;18.268;2023-07-24T05:15:00;14.00;;;7.68;;
33403;SDS011;19751;40.274;18.268;2023-07-24T05:17:25;18.17;;;7.68;;
33403;SDS011;19751;40.274;18.268;2023-07-24T05:19:51;14.95;;;7.90;;
33403;SDS011;19751;40.274;18.268;2023-07-24T05:22:16;14.07;;;7.05;;
33403;SDS011;19751;40.274;18.268;2023-07-24T05:24:42;13.88;;;7.70;;
33403;SDS011;19751;40.274;18.268;2023-07-24T05:27:08;16.95;;;7.20;;
33403;SDS011;19751;40.274;18.268;2023-07-24T05:29:33;17.10;;;7.90;;
33403;SDS011;19751;40.274;18.268;2023-07-24T05:31:59;18.23;;;7.38;;
33403;SDS011;19751;40.274;18.268;2023-07-24T05:34:25;21.40;;;7.78;;
33403;SDS011;19751;40.274;18.268;2023-07-24T05:36:50;20.45;;;7.95;;
33403;SDS011;19751;40.274;18.268;2023-07-24T05:39:16;30.83;;;10.48;;
33403;SDS011;19751;40.274;18.268;2023-07-24T05:41:41;21.77;;;7.47;;
33403;SDS011;19751;40.274;18.268;2023-07-24T05:44:07;20.58;;;9.68;;
33403;SDS011;19751;40.274;18.268;2023-07-24T05:46:32;14.95;;;8.00;;
33403;SDS011;19751;40.274;18.268;2023-07-24T05:48:58;18.63;;;7.07;;
33403;SDS011;19751;40.274;18.268;2023-07-24T05:51:25;14.88;;;7.28;;
33403;SDS011;19751;40.274;18.268;2023-07-24T05:53:51;11.20;;;5.10;;
33403;SDS011;19751;40.274;18.268;2023-07-24T05:56:16;8.15;;;5.35;;
33403;SDS011;19751;40.274;18.268;2023-07-24T05:58:42;10.25;;;5.65;;
33403;SDS011;19751;40.274;18.268;2023-07-24T06:01:07;12.07;;;5.22;;
33403;SDS011;19751;40.274;18.268;2023-07-24T06:03:35;9.20;;;5.15;;
33403;SDS011;19751;40.274;18.268;2023-07-24T06:06:00;9.27;;;5.05;;
33403;SDS011;19751;40.274;18.268;2023-07-24T06:08:26;10.23;;;5.75;;
33403;SDS011;19751;40.274;18.268;2023-07-24T06:10:51;12.05;;;5.13;;
33403;SDS011;19751;40.274;18.268;2023-07-24T06:13:17;10.52;;;5.28;;
33403;SDS011;19751;40.274;18.268;2023-07-24T06:15:43;7.97;;;4.85;;
33403;SDS011;19751;40.274;18.268;2023-07-24T06:18:09;9.57;;;5.32;;
33403;SDS011;19751;40.274;18.268;2023-07-24T06:20:35;14.13;;;5.65;;
33403;SDS011;19751;40.274;18.268;2023-07-24T06:23:01;13.45;;;6.35;;
33403;SDS011;19751;40.274;18.268;2023-07-24T06:25:29;9.45;;;3.92;;
33403;SDS011;19751;40.274;18.268;2023-07-24T06:27:55;6.00;;;4.85;;
33403;SDS011;19751;40.274;18.268;2023-07-24T06:30:21;8.38;;;4.43;;
33403;SDS011;19751;40.274;18.268;2023-07-24T06:32:46;7.85;;;4.93;;
33403;SDS011;19751;40.274;18.268;2023-07-24T06:35:12;18.80;;;7.00;;
33403;SDS011;19751;40.274;18.268;2023-07-24T06:37:37;21.13;;;7.20;;
33403;SDS011;19751;40.274;18.268;2023-07-24T06:40:03;14.55;;;5.72;;
33403;SDS011;19751;40.274;18.268;2023-07-24T06:42:29;19.08;;;6.28;;
33403;SDS011;19751;40.274;18.268;2023-07-24T06:44:55;10.88;;;5.97;;
33403;SDS011;19751;40.274;18.268;2023-07-24T06:47:20;11.93;;;5.07;;
33403;SDS011;19751;40.274;18.268;2023-07-24T06:49:46;11.35;;;4.97;;
33403;SDS011;19751;40.274;18.268;2023-07-24T06:52:12;12.07;;;5.18;;
33403;SDS011;19751;40.274;18.268;2023-07-24T06:54:37;11.82;;;4.95;;
33403;SDS011;19751;40.274;18.268;2023-07-24T06:57:03;113.38;;;16.63;;
33403;SDS011;19751;40.274;18.268;2023-07-24T06:59:28;65.88;;;11.80;;
33403;SDS011;19751;40.274;18.268;2023-07-24T07:01:54;19.88;;;6.35;;
33403;SDS011;19751;40.274;18.268;2023-07-24T07:04:19;11.73;;;4.10;;
33403;SDS011;19751;40.274;18.268;2023-07-24T07:06:45;12.55;;;4.68;;
33403;SDS011;19751;40.274;18.268;2023-07-24T07:09:10;7.57;;;4.75;;
33403;SDS011;19751;40.274;18.268;2023-07-24T07:11:36;8.82;;;4.10;;
33403;SDS011;19751;40.274;18.268;2023-07-24T07:14:02;11.30;;;4.60;;
33403;SDS011;19751;40.274;18.268;2023-07-24T07:16:27;6.45;;;4.15;;
33403;SDS011;19751;40.274;18.268;2023-07-24T07:18:53;13.27;;;4.50;;
33403;SDS011;19751;40.274;18.268;2023-07-24T07:21:18;11.40;;;4.85;;
33403;SDS011;19751;40.274;18.268;2023-07-24T07:23:44;10.27;;;5.10;;
33403;SDS011;19751;40.274;18.268;2023-07-24T07:26:09;12.88;;;5.70;;
33403;SDS011;19751;40.274;18.268;2023-07-24T07:28:35;10.70;;;4.50;;
33403;SDS011;19751;40.274;18.268;2023-07-24T07:31:00;7.18;;;4.65;;
33403;SDS011;19751;40.274;18.268;2023-07-24T07:33:26;6.68;;;4.70;;
33403;SDS011;19751;40.274;18.268;2023-07-24T07:35:51;9.48;;;5.18;;
33403;SDS011;19751;40.274;18.268;2023-07-24T07:38:17;10.63;;;4.90;;
33403;SDS011;19751;40.274;18.268;2023-07-24T07:40:42;7.20;;;4.38;;
33403;SDS011;19751;40.274;18.268;2023-07-24T07:43:08;10.82;;;4.55;;
33403;SDS011;19751;40.274;18.268;2023-07-24T07:45:34;6.65;;;3.92;;
33403;SDS011;19751;40.274;18.268;2023-07-24T07:47:59;8.07;;;4.68;;
33403;SDS011;19751;40.274;18.268;2023-07-24T07:50:25;9.52;;;5.18;;
33403;SDS011;19751;40.274;18.268;2023-07-24T07:52:51;8.68;;;4.00;;
33403;SDS011;19751;40.274;18.268;2023-07-24T07:55:20;7.68;;;3.80;;
33403;SDS011;19751;40.274;18.268;2023-07-24T07:57:46;8.02;;;4.35;;
33403;SDS011;19751;40.274;18.268;2023-07-24T08:00:11;7.22;;;4.03;;
33403;SDS011;19751;40.274;18.268;2023-07-24T08:02:38;11.35;;;4.22;;
33403;SDS011;19751;40.274;18.268;2023-07-24T08:05:07;8.85;;;4.07;;
33403;SDS011;19751;40.274;18.268;2023-07-24T08:07:33;8.07;;;4.50;;
33403;SDS011;19751;40.274;18.268;2023-07-24T08:09:59;7.35;;;4.03;;
33403;SDS011;19751;40.274;18.268;2023-07-24T08:12:24;9.00;;;4.28;;
33403;SDS011;19751;40.274;18.268;2023-07-24T08:14:50;10.25;;;4.00;;
33403;SDS011;19751;40.274;18.268;2023-07-24T08:17:15;8.15;;;3.65;;
33403;SDS011;19751;40.274;18.268;2023-07-24T08:19:41;5.90;;;3.38;;
33403;SDS011;19751;40.274;18.268;2023-07-24T08:22:06;7.45;;;4.18;;
33403;SDS011;19751;40.274;18.268;2023-07-24T08:24:35;6.97;;;3.80;;
33403;SDS011;19751;40.274;18.268;2023-07-24T08:27:01;8.00;;;4.43;;
33403;SDS011;19751;40.274;18.268;2023-07-24T08:29:27;10.00;;;4.47;;
33403;SDS011;19751;40.274;18.268;2023-07-24T08:31:52;9.30;;;4.13;;
33403;SDS011;19751;40.274;18.268;2023-07-24T08:34:18;10.60;;;3.40;;
33403;SDS011;19751;40.274;18.268;2023-07-24T08:36:43;8.00;;;4.22;;
33403;SDS011;19751;40.274;18.268;2023-07-24T08:39:09;15.32;;;4.60;;
33403;SDS011;19751;40.274;18.268;2023-07-24T08:41:34;9.88;;;4.78;;
33403;SDS011;19751;40.274;18.268;2023-07-24T08:44:02;9.60;;;4.85;;
33403;SDS011;19751;40.274;18.268;2023-07-24T08:46:30;7.63;;;3.90;;
33403;SDS011;19751;40.274;18.268;2023-07-24T08:49:00;14.40;;;3.90;;
33403;SDS011;19751;40.274;18.268;2023-07-24T08:51:26;8.57;;;4.00;;
33403;SDS011;19751;40.274;18.268;2023-07-24T08:53:53;7.47;;;3.58;;
33403;SDS011;19751;40.274;18.268;2023-07-24T08:56:19;9.82;;;4.90;;
33403;SDS011;19751;40.274;18.268;2023-07-24T08:58:44;10.63;;;4.43;;
33403;SDS011;19751;40.274;18.268;2023-07-24T09:01:10;10.13;;;3.78;;
33403;SDS011;19751;40.274;18.268;2023-07-24T09:03:36;14.50;;;4.82;;
33403;SDS011;19751;40.274;18.268;2023-07-24T09:06:02;6.22;;;3.80;;
33403;SDS011;19751;40.274;18.268;2023-07-24T09:08:37;15.27;;;4.57;;
33403;SDS011;19751;40.274;18.268;2023-07-24T09:11:05;9.32;;;4.00;;
33403;SDS011;19751;40.274;18.268;2023-07-24T09:13:32;11.48;;;4.05;;
33403;SDS011;19751;40.274;18.268;2023-07-24T09:15:58;8.48;;;4.47;;
33403;SDS011;19751;40.274;18.268;2023-07-24T09:18:24;6.03;;;4.05;;
33403;SDS011;19751;40.274;18.268;2023-07-24T09:20:50;10.07;;;4.55;;
33403;SDS011;19751;40.274;18.268;2023-07-24T09:23:17;12.18;;;5.45;;
33403;SDS011;19751;40.274;18.268;2023-07-24T09:25:53;10.63;;;3.95;;
33403;SDS011;19751;40.274;18.268;2023-07-24T09:28:20;11.20;;;4.72;;
33403;SDS011;19751;40.274;18.268;2023-07-24T09:30:55;10.30;;;5.03;;
33403;SDS011;19751;40.274;18.268;2023-07-24T09:33:23;6.88;;;4.35;;
33403;SDS011;19751;40.274;18.268;2023-07-24T09:36:02;5.75;;;4.13;;
33403;SDS011;19751;40.274;18.268;2023-07-24T09:38:29;7.85;;;3.95;;
33403;SDS011;19751;40.274;18.268;2023-07-24T09:40:55;7.00;;;3.67;;
33403;SDS011;19751;40.274;18.268;2023-07-24T09:43:22;9.07;;;3.97;;
33403;SDS011;19751;40.274;18.268;2023-07-24T09:45:49;6.45;;;3.65;;
33403;SDS011;19751;40.274;18.268;2023-07-24T09:48:17;6.13;;;3.17;;
33403;SDS011;19751;40.274;18.268;2023-07-24T09:50:47;12.95;;;3.90;;
33403;SDS011;19751;40.274;18.268;2023-07-24T09:58:24;5.47;;;3.83;;
33403;SDS011;19751;40.274;18.268;2023-07-24T10:00:51;9.00;;;3.63;;
33403;SDS011;19751;40.274;18.268;2023-07-24T10:03:18;6.55;;;3.63;;
33403;SDS011;19751;40.274;18.268;2023-07-24T10:05:45;8.88;;;4.20;;
33403;SDS011;19751;40.274;18.268;2023-07-24T10:08:12;6.00;;;3.50;;
33403;SDS011;19751;40.274;18.268;2023-07-24T10:10:39;8.77;;;4.07;;
33403;SDS011;19751;40.274;18.268;2023-07-24T10:13:05;6.13;;;3.80;;
33403;SDS011;19751;40.274;18.268;2023-07-24T10:15:32;11.60;;;3.88;;
33403;SDS011;19751;40.274;18.268;2023-07-24T10:18:05;6.47;;;3.63;;
33403;SDS011;19751;40.274;18.268;2023-07-24T10:20:35;5.57;;;3.30;;
33403;SDS011;19751;40.274;18.268;2023-07-24T10:23:06;3.95;;;3.33;;
33403;SDS011;19751;40.274;18.268;2023-07-24T10:25:37;6.32;;;3.63;;
33403;SDS011;19751;40.274;18.268;2023-07-24T10:28:09;6.90;;;3.90;;
33403;SDS011;19751;40.274;18.268;2023-07-24T10:30:41;9.85;;;4.28;;
33403;SDS011;19751;40.274;18.268;2023-07-24T10:33:11;5.50;;;3.50;;
33403;SDS011;19751;40.274;18.268;2023-07-24T10:35:47;5.10;;;3.53;;
33403;SDS011;19751;40.274;18.268;2023-07-24T10:38:15;6.80;;;4.07;;
33403;SDS011;19751;40.274;18.268;2023-07-24T10:40:44;9.27;;;4.28;;
33403;SDS011;19751;40.274;18.268;2023-07-24T10:43:12;7.97;;;3.90;;
33403;SDS011;19751;40.274;18.268;2023-07-24T10:48:15;7.93;;;4.93;;
33403;SDS011;19751;40.274;18.268;2023-07-24T10:50:45;10.27;;;4.63;;
33403;SDS011;19751;40.274;18.268;2023-07-24T10:53:22;14.35;;;4.57;;
33403;SDS011;19751;40.274;18.268;2023-07-24T10:55:48;6.22;;;4.40;;
33403;SDS011;19751;40.274;18.268;2023-07-24T10:58:17;8.68;;;4.80;;
33403;SDS011;19751;40.274;18.268;2023-07-24T11:00:44;7.75;;;4.63;;
33403;SDS011;19751;40.274;18.268;2023-07-24T11:03:10;6.28;;;3.85;;
33403;SDS011;19751;40.274;18.268;2023-07-24T11:05:42;6.60;;;3.70;;
33403;SDS011;19751;40.274;18.268;2023-07-24T11:08:19;7.00;;;4.77;;
33403;SDS011;19751;40.274;18.268;2023-07-24T11:10:46;11.48;;;4.03;;
33403;SDS011;19751;40.274;18.268;2023-07-24T11:13:15;8.13;;;3.85;;
33403;SDS011;19751;40.274;18.268;2023-07-24T11:15:45;5.45;;;3.88;;
33403;SDS011;19751;40.274;18.268;2023-07-24T11:18:11;6.93;;;4.00;;
33403;SDS011;19751;40.274;18.268;2023-07-24T11:20:43;8.07;;;4.55;;
33403;SDS011;19751;40.274;18.268;2023-07-24T11:23:16;7.70;;;4.05;;
33403;SDS011;19751;40.274;18.268;2023-07-24T11:25:42;6.68;;;4.22;;
33403;SDS011;19751;40.274;18.268;2023-07-24T11:28:11;7.40;;;3.85;;
33403;SDS011;19751;40.274;18.268;2023-07-24T11:30:38;6.80;;;4.07;;
33403;SDS011;19751;40.274;18.268;2023-07-24T11:35:52;8.10;;;3.85;;
33403;SDS011;19751;40.274;18.268;2023-07-24T11:38:18;5.15;;;4.13;;
33403;SDS011;19751;40.274;18.268;2023-07-24T11:40:43;7.80;;;4.25;;
33403;SDS011;19751;40.274;18.268;2023-07-24T11:43:44;7.18;;;4.70;;
33403;SDS011;19751;40.274;18.268;2023-07-24T11:46:10;9.63;;;4.65;;
33403;SDS011;19751;40.274;18.268;2023-07-24T11:48:40;7.53;;;5.00;;
33403;SDS011;19751;40.274;18.268;2023-07-24T11:51:06;11.43;;;5.28;;
33403;SDS011;19751;40.274;18.268;2023-07-24T11:53:31;9.55;;;4.93;;
33403;SDS011;19751;40.274;18.268;2023-07-24T11:55:58;8.40;;;5.13;;
33403;SDS011;19751;40.274;18.268;2023-07-24T11:58:27;6.07;;;4.70;;
33403;SDS011;19751;40.274;18.268;2023-07-24T12:00:54;7.28;;;4.65;;
33403;SDS011;19751;40.274;18.268;2023-07-24T12:03:24;8.38;;;4.25;;
33403;SDS011;19751;40.274;18.268;2023-07-24T12:06:00;9.25;;;4.13;;
33403;SDS011;19751;40.274;18.268;2023-07-24T12:08:34;8.20;;;4.05;;
33403;SDS011;19751;40.274;18.268;2023-07-24T12:11:01;9.63;;;5.18;;
33403;SDS011;19751;40.274;18.268;2023-07-24T12:13:26;6.10;;;3.72;;
33403;SDS011;19751;40.274;18.268;2023-07-24T12:15:53;9.00;;;4.35;;
33403;SDS011;19751;40.274;18.268;2023-07-24T12:18:19;11.75;;;5.28;;
33403;SDS011;19751;40.274;18.268;2023-07-24T12:20:45;12.10;;;4.10;;
33403;SDS011;19751;40.274;18.268;2023-07-24T12:23:10;7.97;;;3.97;;
33403;SDS011;19751;40.274;18.268;2023-07-24T12:25:36;8.18;;;4.53;;
33403;SDS011;19751;40.274;18.268;2023-07-24T12:28:01;10.90;;;4.50;;
33403;SDS011;19751;40.274;18.268;2023-07-24T12:30:27;7.13;;;4.22;;
33403;SDS011;19751;40.274;18.268;2023-07-24T12:32:52;7.82;;;4.38;;
33403;SDS011;19751;40.274;18.268;2023-07-24T12:35:18;7.53;;;5.22;;
33403;SDS011;19751;40.274;18.268;2023-07-24T12:37:44;11.57;;;3.95;;
33403;SDS011;19751;40.274;18.268;2023-07-24T12:40:10;8.07;;;4.60;;
33403;SDS011;19751;40.274;18.268;2023-07-24T12:42:36;6.75;;;4.25;;
33403;SDS011;19751;40.274;18.268;2023-07-24T12:45:02;7.80;;;4.63;;
33403;SDS011;19751;40.274;18.268;2023-07-24T12:47:28;7.63;;;3.50;;
33403;SDS011;19751;40.274;18.268;2023-07-24T12:49:54;9.07;;;4.40;;
33403;SDS011;19751;40.274;18.268;2023-07-24T12:52:21;8.77;;;4.55;;
33403;SDS011;19751;40.274;18.268;2023-07-24T12:54:47;10.10;;;4.63;;
33403;SDS011;19751;40.274;18.268;2023-07-24T12:57:12;6.93;;;4.90;;
33403;SDS011;19751;40.274;18.268;2023-07-24T12:59:38;7.15;;;4.60;;
33403;SDS011;19751;40.274;18.268;2023-07-24T13:02:03;7.60;;;4.88;;
33403;SDS011;19751;40.274;18.268;2023-07-24T13:04:29;6.72;;;4.68;;
33403;SDS011;19751;40.274;18.268;2023-07-24T13:06:54;12.63;;;5.45;;
33403;SDS011;19751;40.274;18.268;2023-07-24T13:09:20;7.95;;;4.28;;
33403;SDS011;19751;40.274;18.268;2023-07-24T13:11:45;7.90;;;5.03;;
33403;SDS011;19751;40.274;18.268;2023-07-24T13:14:16;17.23;;;5.63;;
33403;SDS011;19751;40.274;18.268;2023-07-24T13:16:41;10.95;;;6.28;;
33403;SDS011;19751;40.274;18.268;2023-07-24T13:19:07;7.55;;;5.30;;
33403;SDS011;19751;40.274;18.268;2023-07-24T13:21:32;11.90;;;6.20;;
33403;SDS011;19751;40.274;18.268;2023-07-24T13:23:58;11.43;;;5.95;;
33403;SDS011;19751;40.274;18.268;2023-07-24T13:26:23;7.00;;;5.30;;
33403;SDS011;19751;40.274;18.268;2023-07-24T13:28:49;9.80;;;5.82;;
33403;SDS011;19751;40.274;18.268;2023-07-24T13:31:16;6.50;;;5.45;;
33403;SDS011;19751;40.274;18.268;2023-07-24T13:33:43;5.78;;;4.45;;
33403;SDS011;19751;40.274;18.268;2023-07-24T13:36:08;8.00;;;5.78;;
33403;SDS011;19751;40.274;18.268;2023-07-24T13:38:34;11.38;;;5.57;;
33403;SDS011;19751;40.274;18.268;2023-07-24T13:41:00;11.52;;;5.72;;
33403;SDS011;19751;40.274;18.268;2023-07-24T13:43:26;8.73;;;4.82;;
33403;SDS011;19751;40.274;18.268;2023-07-24T13:45:52;9.77;;;5.28;;
33403;SDS011;19751;40.274;18.268;2023-07-24T13:48:18;11.40;;;5.82;;
33403;SDS011;19751;40.274;18.268;2023-07-24T13:50:44;8.70;;;5.35;;
33403;SDS011;19751;40.274;18.268;2023-07-24T13:53:09;6.70;;;5.15;;
33403;SDS011;19751;40.274;18.268;2023-07-24T13:55:35;11.50;;;5.55;;
33403;SDS011;19751;40.274;18.268;2023-07-24T13:58:00;9.55;;;5.38;;
33403;SDS011;19751;40.274;18.268;2023-07-24T14:00:26;13.77;;;5.35;;
33403;SDS011;19751;40.274;18.268;2023-07-24T14:02:51;13.48;;;4.63;;
33403;SDS011;19751;40.274;18.268;2023-07-24T14:05:17;10.52;;;5.13;;
33403;SDS011;19751;40.274;18.268;2023-07-24T14:07:42;16.25;;;4.22;;
33403;SDS011;19751;40.274;18.268;2023-07-24T14:10:09;10.75;;;4.80;;
33403;SDS011;19751;40.274;18.268;2023-07-24T14:12:35;12.80;;;5.40;;
33403;SDS011;19751;40.274;18.268;2023-07-24T14:15:01;8.60;;;4.57;;
33403;SDS011;19751;40.274;18.268;2023-07-24T14:17:26;9.48;;;4.15;;
33403;SDS011;19751;40.274;18.268;2023-07-24T14:19:52;12.13;;;4.07;;
33403;SDS011;19751;40.274;18.268;2023-07-24T14:22:18;14.23;;;4.93;;
33403;SDS011;19751;40.274;18.268;2023-07-24T14:24:43;11.50;;;5.22;;
33403;SDS011;19751;40.274;18.268;2023-07-24T14:27:09;14.95;;;5.00;;
33403;SDS011;19751;40.274;18.268;2023-07-24T14:29:34;9.40;;;4.72;;
33403;SDS011;19751;40.274;18.268;2023-07-24T14:32:00;10.63;;;4.05;;